Time;durP1;ratioP1;P1;durP2;ratioP2;P2;SDS_P1;SDS_P2;PMS_P1;PMS_P2;Temp;Humidity;BMP_temperature;BMP_pressure;BME280_temperature;BME280_humidity;BME280_pressure;Samples;Min_cycle;Max_cycle;Signal;HPM_P1;HPM_P2
2022/07/04 00:00:52;;;;;;;2.97;2.60;;;25.10;52.80;;;;;;5040716;28;20508;-81
2022/07/04 00:03:20;;;;;;;4.40;3.30;;;25.00;52.50;;;;;;5040246;28;20525;-81
2022/07/04 00:05:48;;;;;;;12.30;9.37;;;25.00;52.70;;;;;;5040287;28;20460;-81
2022/07/04 00:08:16;;;;;;;36.20;23.00;;;25.00;53.00;;;;;;5040137;28;20428;-81
2022/07/04 00:10:44;;;;;;;5.77;4.33;;;25.10;52.60;;;;;;5039904;28;20441;-81
2022/07/04 00:13:12;;;;;;;3.63;3.33;;;25.00;52.60;;;;;;5052854;28;20526;-81
2022/07/04 00:15:41;;;;;;;8.50;3.80;;;24.90;52.60;;;;;;5051561;28;20484;-81
2022/07/04 00:18:09;;;;;;;3.13;2.90;;;24.90;52.50;;;;;;5060758;28;20421;-81
2022/07/04 00:20:37;;;;;;;2.87;2.67;;;24.90;52.40;;;;;;5061069;28;20421;-81
2022/07/04 00:23:05;;;;;;;3.30;2.80;;;24.90;52.50;;;;;;5060877;28;20516;-81
2022/07/04 00:25:33;;;;;;;3.87;2.67;;;24.80;52.60;;;;;;5061262;28;20492;-81
2022/07/04 00:28:01;;;;;;;2.77;2.60;;;24.80;52.70;;;;;;5060179;28;20427;-81
2022/07/04 00:30:29;;;;;;;2.43;2.23;;;24.70;52.80;;;;;;5053029;28;20471;-79
2022/07/04 00:32:59;;;;;;;3.57;2.43;;;24.70;53.20;;;;;;5043560;28;20555;-82
2022/07/04 00:35:26;;;;;;;2.27;2.07;;;24.90;53.00;;;;;;5044765;28;20465;-82
2022/07/04 00:37:54;;;;;;;2.87;2.70;;;25.10;52.30;;;;;;5053324;28;20443;-81
2022/07/04 00:40:22;;;;;;;2.87;2.77;;;25.00;51.90;;;;;;5053304;28;20406;-81
2022/07/04 00:42:50;;;;;;;3.33;2.60;;;24.90;51.90;;;;;;5051454;28;20494;-80
2022/07/04 00:45:19;;;;;;;7.20;3.37;;;24.80;52.40;;;;;;5051227;28;20439;-80
2022/07/04 00:47:47;;;;;;;7.53;3.40;;;24.80;52.40;;;;;;5065952;28;20428;-81
2022/07/04 00:50:16;;;;;;;11.53;5.43;;;24.70;52.40;;;;;;5049054;28;20414;-82
2022/07/04 00:52:44;;;;;;;4.90;3.90;;;24.60;52.40;;;;;;5047838;28;20466;-81
2022/07/04 00:55:12;;;;;;;7.33;5.20;;;24.60;53.00;;;;;;5050160;28;20446;-81
2022/07/04 00:57:40;;;;;;;6.90;4.80;;;24.50;52.80;;;;;;5049669;28;20481;-81
2022/07/04 01:00:08;;;;;;;9.03;5.87;;;24.50;52.60;;;;;;5047999;28;20453;-81
2022/07/04 01:02:36;;;;;;;4.10;3.70;;;24.40;52.80;;;;;;5048073;28;20436;-81
2022/07/04 01:05:04;;;;;;;5.90;4.20;;;24.40;53.30;;;;;;5059137;28;20435;-80
2022/07/04 01:07:34;;;;;;;5.13;3.63;;;24.30;53.20;;;;;;5071123;28;20465;-80
2022/07/04 01:10:02;;;;;;;4.77;3.90;;;24.40;53.10;;;;;;5071623;28;20445;-80
2022/07/04 01:12:30;;;;;;;9.00;4.07;;;24.30;54.00;;;;;;5072170;28;20446;-80
2022/07/04 01:14:58;;;;;;;7.03;4.10;;;24.30;53.10;;;;;;5072357;28;20442;-80
2022/07/04 01:17:26;;;;;;;4.40;3.57;;;24.30;53.00;;;;;;5071769;28;20482;-80
2022/07/04 01:19:54;;;;;;;6.30;3.97;;;24.30;53.20;;;;;;5067893;28;20447;-80
2022/07/04 01:26:11;;;;;;;3.40;3.10;;;24.30;53.00;;;;;;5071012;28;20937;-80
2022/07/04 01:28:40;;;;;;;6.73;4.07;;;24.20;53.00;;;;;;5070637;28;20437;-80
2022/07/04 01:31:07;;;;;;;6.90;4.00;;;24.20;53.10;;;;;;5066895;28;20488;-80
2022/07/04 01:33:35;;;;;;;5.83;3.87;;;24.20;53.00;;;;;;5072933;28;20474;-80
2022/07/04 01:36:04;;;;;;;6.37;3.70;;;24.10;53.00;;;;;;5071810;28;20510;-80
2022/07/04 01:38:32;;;;;;;8.03;5.13;;;24.00;53.50;;;;;;5071588;28;20466;-80
2022/07/04 01:41:00;;;;;;;7.37;5.47;;;24.10;53.40;;;;;;5071897;28;20477;-80
2022/07/04 01:43:29;;;;;;;5.30;4.80;;;24.00;53.10;;;;;;5067947;28;20509;-80
2022/07/04 01:45:57;;;;;;;7.33;4.90;;;23.90;53.40;;;;;;5071213;28;20458;-80
2022/07/04 01:48:25;;;;;;;10.90;5.03;;;23.90;53.10;;;;;;5070578;28;20474;-80
2022/07/04 01:50:53;;;;;;;7.90;5.00;;;23.90;53.20;;;;;;5071874;28;20466;-80
2022/07/04 01:53:21;;;;;;;8.17;4.70;;;23.80;53.30;;;;;;5071165;28;20459;-80
2022/07/04 01:55:49;;;;;;;8.10;4.57;;;23.90;53.00;;;;;;5071468;28;20447;-80
2022/07/04 01:58:17;;;;;;;5.67;4.30;;;23.90;53.00;;;;;;5070887;28;20494;-80
2022/07/04 02:03:31;;;;;;;13.60;6.50;;;23.90;53.10;;;;;;5065410;28;20455;-80
2022/07/04 02:05:59;;;;;;;12.00;4.80;;;23.90;52.70;;;;;;5052885;28;20438;-81
2022/07/04 02:09:14;;;;;;;6.90;4.30;;;23.90;52.90;;;;;;5051998;28;20450;-81
2022/07/04 02:11:15;;;;;;;5.20;4.27;;;23.80;52.80;;;;;;5050896;28;20437;-81
2022/07/04 02:13:42;;;;;;;4.47;4.07;;;23.70;53.00;;;;;;5050956;28;20459;-81
2022/07/04 02:16:11;;;;;;;5.20;4.13;;;23.80;53.10;;;;;;5052619;28;20423;-81
2022/07/04 02:18:39;;;;;;;5.93;4.00;;;23.70;52.90;;;;;;5052862;28;20504;-81
2022/07/04 02:21:06;;;;;;;5.00;4.10;;;23.70;53.00;;;;;;5063591;28;20478;-81
2022/07/04 02:23:34;;;;;;;3.87;3.57;;;23.70;53.00;;;;;;5068337;28;20442;-81
2022/07/04 02:26:02;;;;;;;6.43;3.80;;;23.70;52.70;;;;;;5071103;28;20450;-81
2022/07/04 02:28:30;;;;;;;5.40;3.77;;;23.60;53.00;;;;;;5071156;28;20435;-81
2022/07/04 02:30:58;;;;;;;5.70;4.00;;;23.70;53.40;;;;;;5070836;28;20463;-81
2022/07/04 02:33:27;;;;;;;10.57;3.70;;;23.70;52.60;;;;;;5071048;28;20486;-81
2022/07/04 02:35:55;;;;;;;4.57;4.23;;;23.60;52.70;;;;;;5070222;28;20409;-81
2022/07/04 02:38:23;;;;;;;4.33;3.97;;;23.60;53.00;;;;;;5063896;28;20442;-81
2022/07/04 02:40:51;;;;;;;4.67;3.60;;;23.60;52.80;;;;;;5069912;28;20434;-81
2022/07/04 02:43:19;;;;;;;4.17;3.70;;;23.60;53.00;;;;;;5065744;28;20505;-81
2022/07/04 02:45:47;;;;;;;4.17;3.77;;;23.60;52.70;;;;;;5070910;28;20431;-81
2022/07/04 02:48:15;;;;;;;4.10;3.70;;;23.50;52.70;;;;;;5071001;28;20425;-81
2022/07/04 02:50:44;;;;;;;4.90;3.93;;;23.50;53.10;;;;;;5071174;28;20426;-81
2022/07/04 02:53:12;;;;;;;4.27;3.97;;;23.60;52.70;;;;;;5070671;28;20450;-80
2022/07/04 02:55:40;;;;;;;7.40;3.80;;;23.50;52.80;;;;;;5067667;28;20465;-80
2022/07/04 02:58:08;;;;;;;5.70;3.80;;;23.50;52.90;;;;;;5049660;28;20430;-80
2022/07/04 03:00:35;;;;;;;4.00;3.63;;;23.50;52.70;;;;;;5050239;28;20451;-80
2022/07/04 03:03:04;;;;;;;4.33;4.00;;;23.50;52.80;;;;;;5050560;28;20476;-80
2022/07/04 03:05:32;;;;;;;4.00;3.70;;;23.50;53.10;;;;;;5051322;28;20439;-80
2022/07/04 03:08:01;;;;;;;4.67;4.17;;;23.40;52.80;;;;;;5050573;28;20407;-80
2022/07/04 03:10:29;;;;;;;8.33;3.87;;;23.40;53.20;;;;;;5056730;28;20461;-81
2022/07/04 03:12:58;;;;;;;5.10;4.67;;;23.50;52.90;;;;;;5059089;28;20535;-80
2022/07/04 03:15:33;;;;;;;4.23;3.90;;;23.40;52.60;;;;;;5051102;28;20482;-80
2022/07/04 03:18:01;;;;;;;5.40;4.20;;;23.40;52.80;;;;;;5050375;28;20450;-80
2022/07/04 03:20:29;;;;;;;3.47;3.27;;;23.40;52.90;;;;;;5050283;28;20443;-80
2022/07/04 03:22:57;;;;;;;4.63;4.23;;;23.40;52.80;;;;;;5050791;28;20464;-80
2022/07/04 03:25:27;;;;;;;4.07;3.70;;;23.30;53.40;;;;;;5050082;28;20913;-79
2022/07/04 03:27:54;;;;;;;5.23;3.90;;;23.30;53.00;;;;;;5058913;28;20475;-80
2022/07/04 03:30:22;;;;;;;4.57;3.40;;;23.30;52.70;;;;;;5061957;28;20450;-80
2022/07/04 03:32:50;;;;;;;6.50;3.53;;;23.30;52.80;;;;;;5070593;28;20441;-79
2022/07/04 03:35:18;;;;;;;4.20;3.80;;;23.40;52.90;;;;;;5069892;28;20466;-80
2022/07/04 03:37:46;;;;;;;4.67;3.73;;;23.30;52.70;;;;;;5070767;28;20439;-80
2022/07/04 03:40:14;;;;;;;6.60;3.90;;;23.10;52.70;;;;;;5069910;28;20433;-80
2022/07/04 03:42:43;;;;;;;5.27;4.83;;;23.10;53.80;;;;;;5070417;28;20432;-80
2022/07/04 03:45:11;;;;;;;4.03;3.70;;;23.20;52.90;;;;;;5069690;28;20425;-80
2022/07/04 03:47:39;;;;;;;6.73;5.53;;;23.20;53.00;;;;;;5062451;28;20398;-80
2022/07/04 03:50:08;;;;;;;4.20;3.80;;;23.20;53.20;;;;;;5070127;28;20510;-79
2022/07/04 03:52:36;;;;;;;3.50;3.20;;;23.10;53.10;;;;;;5070386;28;20461;-79
2022/07/04 03:55:04;;;;;;;5.43;3.80;;;23.20;52.80;;;;;;5070321;28;20505;-80
2022/07/04 03:57:31;;;;;;;5.80;3.70;;;23.10;52.80;;;;;;5070688;28;20459;-80
2022/07/04 04:00:01;;;;;;;4.20;3.50;;;23.10;53.00;;;;;;5070597;28;20439;-80
2022/07/04 04:02:29;;;;;;;6.60;4.10;;;23.10;52.90;;;;;;5062012;28;20498;-79
2022/07/04 04:07:43;;;;;;;9.23;3.30;;;23.00;52.60;;;;;;5070416;28;20429;-80
2022/07/04 04:10:12;;;;;;;4.40;4.00;;;23.10;52.80;;;;;;5069866;28;20434;-80
2022/07/04 04:12:40;;;;;;;4.17;3.87;;;23.10;52.80;;;;;;5072532;28;20454;-80
2022/07/04 04:15:10;;;;;;;3.77;3.47;;;22.90;52.50;;;;;;5074576;28;20470;-80
2022/07/04 04:17:37;;;;;;;4.20;3.50;;;22.70;53.20;;;;;;5071671;28;20430;-80
2022/07/04 04:20:08;;;;;;;4.73;4.27;;;22.70;53.40;;;;;;5067196;28;20609;-80
2022/07/04 04:22:36;;;;;;;4.67;4.20;;;23.00;52.60;;;;;;5074029;28;20421;-79
2022/07/04 04:25:05;;;;;;;3.90;3.60;;;22.60;53.40;;;;;;5073412;28;20401;-80
2022/07/04 04:27:32;;;;;;;5.50;4.70;;;22.40;53.50;;;;;;5073136;28;20430;-80
2022/07/04 04:30:00;;;;;;;4.40;4.03;;;22.20;54.20;;;;;;5072851;28;20431;-79
2022/07/04 04:32:29;;;;;;;4.37;3.77;;;22.50;54.10;;;;;;5072339;28;20469;-80
2022/07/04 04:34:58;;;;;;;3.67;3.37;;;22.50;54.20;;;;;;5071912;28;20501;-80
2022/07/04 04:37:26;;;;;;;4.87;3.90;;;22.60;53.90;;;;;;5065336;28;20446;-80
2022/07/04 04:39:54;;;;;;;4.10;3.80;;;22.80;53.60;;;;;;5073465;28;20434;-80
2022/07/04 04:42:22;;;;;;;4.07;3.67;;;22.60;53.40;;;;;;5073187;28;20432;-80
2022/07/04 04:44:50;;;;;;;3.93;3.63;;;22.80;53.80;;;;;;5073000;28;20444;-80
2022/07/04 04:47:18;;;;;;;3.17;2.97;;;22.90;53.50;;;;;;5073871;28;20462;-80
2022/07/04 04:49:48;;;;;;;3.50;3.10;;;22.90;53.60;;;;;;5072294;28;20524;-80
2022/07/04 04:52:16;;;;;;;5.63;3.40;;;23.00;53.10;;;;;;5061322;28;20516;-80
2022/07/04 04:54:44;;;;;;;3.90;3.60;;;22.90;52.80;;;;;;5070893;28;20461;-80
2022/07/04 04:57:13;;;;;;;5.23;3.63;;;22.80;53.50;;;;;;5072220;28;20489;-80
2022/07/04 04:59:41;;;;;;;5.37;3.80;;;22.60;53.40;;;;;;5071980;28;20547;-79
2022/07/04 05:02:09;;;;;;;4.37;3.50;;;22.50;53.80;;;;;;5070518;28;20437;-79
2022/07/04 05:04:43;;;;;;;5.90;4.00;;;22.60;54.10;;;;;;5070986;28;20541;-80
2022/07/04 05:07:14;;;;;;;4.00;3.50;;;22.80;53.40;;;;;;5070018;28;20478;-80
2022/07/04 05:09:41;;;;;;;3.87;3.57;;;22.90;53.50;;;;;;5063346;28;20471;-80
2022/07/04 05:12:09;;;;;;;6.23;3.93;;;22.70;52.90;;;;;;5071605;28;20489;-79
2022/07/04 05:14:37;;;;;;;4.97;3.67;;;22.30;53.50;;;;;;5072890;28;20428;-80
2022/07/04 05:17:05;;;;;;;4.07;3.70;;;22.40;54.50;;;;;;5073093;28;20432;-80
2022/07/04 05:19:33;;;;;;;3.97;2.90;;;22.30;53.80;;;;;;5072799;28;20466;-80
2022/07/04 05:22:01;;;;;;;3.60;3.00;;;22.60;54.00;;;;;;5072514;28;20430;-81
2022/07/04 05:24:30;;;;;;;3.13;2.47;;;22.80;53.70;;;;;;5071326;28;21060;-80
2022/07/04 05:26:58;;;;;;;2.97;2.77;;;22.40;53.30;;;;;;5060784;28;20432;-80
2022/07/04 05:29:25;;;;;;;2.63;2.43;;;22.80;53.80;;;;;;5052506;28;20431;-80
2022/07/04 05:31:53;;;;;;;6.27;2.80;;;23.00;53.20;;;;;;5051554;28;20440;-80
2022/07/04 05:34:21;;;;;;;3.93;3.00;;;23.10;52.70;;;;;;5051135;28;20398;-80
2022/07/04 05:36:49;;;;;;;8.40;5.80;;;23.10;52.00;;;;;;5051711;28;20442;-80
2022/07/04 05:39:17;;;;;;;20.43;8.97;;;23.20;52.20;;;;;;5052420;28;20446;-80
2022/07/04 05:41:46;;;;;;;7.07;5.50;;;23.20;52.30;;;;;;5057853;28;20449;-80
2022/07/04 05:44:14;;;;;;;4.83;3.20;;;23.30;52.40;;;;;;5063378;28;20447;-80
2022/07/04 05:46:42;;;;;;;4.97;3.20;;;23.40;51.60;;;;;;5071150;28;20442;-80
2022/07/04 05:49:10;;;;;;;3.73;2.80;;;23.10;51.50;;;;;;5071065;28;20466;-80
2022/07/04 05:51:38;;;;;;;3.40;2.60;;;22.70;52.20;;;;;;5071396;28;20476;-80
2022/07/04 05:54:07;;;;;;;5.00;2.50;;;22.40;53.40;;;;;;5079393;28;20467;-80
2022/07/04 05:56:35;;;;;;;2.60;2.20;;;22.60;53.00;;;;;;5087609;28;20493;-80
2022/07/04 05:59:04;;;;;;;2.87;2.20;;;22.90;53.50;;;;;;5088308;28;20446;-80
2022/07/04 06:01:32;;;;;;;2.57;1.97;;;22.90;52.50;;;;;;5062828;28;20447;-80
2022/07/04 06:04:00;;;;;;;7.53;3.07;;;23.00;52.40;;;;;;5051462;28;20455;-80
2022/07/04 06:06:29;;;;;;;3.30;2.53;;;22.90;52.70;;;;;;5050594;28;20443;-80
2022/07/04 06:08:57;;;;;;;3.10;2.63;;;22.70;52.50;;;;;;5049757;28;20451;-80
2022/07/04 06:11:25;;;;;;;5.63;2.13;;;23.00;53.10;;;;;;5051497;28;20454;-80
2022/07/04 06:13:54;;;;;;;2.00;1.90;;;23.30;52.80;;;;;;5051463;28;20476;-80
2022/07/04 06:16:23;;;;;;;6.03;5.10;;;23.40;52.30;;;;;;5064044;28;20445;-80
2022/07/04 06:18:52;;;;;;;3.80;2.40;;;23.40;51.70;;;;;;5062799;28;20492;-80
2022/07/04 06:21:20;;;;;;;7.27;2.60;;;23.30;52.10;;;;;;5071432;28;20424;-80
2022/07/04 06:23:48;;;;;;;4.50;2.47;;;23.10;52.40;;;;;;5071202;28;20470;-80
2022/07/04 06:26:16;;;;;;;5.70;2.17;;;23.20;53.00;;;;;;5070222;28;20433;-80
2022/07/04 06:28:44;;;;;;;5.83;2.30;;;23.10;52.30;;;;;;5069823;28;20421;-80
2022/07/04 06:31:14;;;;;;;1.90;1.80;;;23.30;52.60;;;;;;5069779;28;20451;-80
2022/07/04 06:36:30;;;;;;;2.50;2.10;;;23.40;52.10;;;;;;5066192;28;21011;-80
2022/07/04 06:38:58;;;;;;;3.87;2.20;;;23.40;52.30;;;;;;5078872;28;20454;-80
2022/07/04 06:41:26;;;;;;;3.37;1.93;;;23.50;52.60;;;;;;5070903;28;20428;-80
2022/07/04 06:43:54;;;;;;;8.60;3.03;;;23.60;52.80;;;;;;5070769;28;20470;-80
2022/07/04 06:46:23;;;;;;;2.83;2.60;;;23.40;52.00;;;;;;5070880;28;20449;-80
2022/07/04 06:48:52;;;;;;;6.40;2.37;;;23.30;53.10;;;;;;5069953;28;20421;-80
2022/07/04 06:51:20;;;;;;;4.33;2.20;;;23.30;52.80;;;;;;5062495;28;20425;-80
2022/07/04 06:53:48;;;;;;;3.80;1.90;;;23.40;52.90;;;;;;5068999;28;20491;-80
2022/07/04 06:56:16;;;;;;;3.20;2.80;;;23.40;52.60;;;;;;5070696;28;20441;-80
2022/07/04 06:58:44;;;;;;;2.67;2.20;;;23.50;52.40;;;;;;5071595;28;20404;-80
2022/07/04 07:01:12;;;;;;;2.50;2.30;;;23.50;52.40;;;;;;5071711;28;20467;-80
2022/07/04 07:03:40;;;;;;;3.17;2.30;;;23.70;52.80;;;;;;5071194;28;20429;-80
2022/07/04 07:06:09;;;;;;;2.70;2.13;;;23.90;51.40;;;;;;5069444;28;20425;-81
2022/07/04 07:08:37;;;;;;;3.00;2.07;;;24.00;51.60;;;;;;5061644;28;20466;-81
2022/07/04 07:11:13;;;;;;;2.80;1.80;;;24.10;51.40;;;;;;5069918;28;20470;-80
2022/07/04 07:13:42;;;;;;;2.13;1.90;;;24.00;51.80;;;;;;5069993;28;20477;-81
2022/07/04 07:16:10;;;;;;;2.53;1.70;;;23.80;50.50;;;;;;5068557;28;20471;-81
2022/07/04 07:18:39;;;;;;;2.67;1.50;;;23.90;51.50;;;;;;5069206;28;20413;-81
2022/07/04 07:21:07;;;;;;;2.40;1.20;;;24.30;50.50;;;;;;5067865;28;20428;-81
2022/07/04 07:23:38;;;;;;;4.77;1.57;;;24.30;50.20;;;;;;5060004;28;20450;-81
2022/07/04 07:26:06;;;;;;;2.97;1.77;;;24.20;49.40;;;;;;5067782;28;20444;-81
2022/07/04 07:28:34;;;;;;;2.80;1.60;;;24.30;50.00;;;;;;5068930;28;20446;-81
2022/07/04 07:31:03;;;;;;;2.80;1.60;;;24.40;49.20;;;;;;5068083;28;20448;-81
2022/07/04 07:33:31;;;;;;;1.97;1.40;;;24.20;48.60;;;;;;5067601;28;20449;-81
2022/07/04 07:35:58;;;;;;;3.30;1.70;;;24.20;49.60;;;;;;5067902;28;20424;-80
2022/07/04 07:38:26;;;;;;;1.97;1.70;;;24.40;49.40;;;;;;5068109;28;20421;-81
2022/07/04 07:40:56;;;;;;;3.33;1.60;;;24.70;48.70;;;;;;5062844;28;20505;-80
2022/07/04 07:43:24;;;;;;;2.13;1.60;;;24.50;49.40;;;;;;5062984;28;20438;-81
2022/07/04 07:45:53;;;;;;;2.40;1.50;;;24.60;49.10;;;;;;5067207;28;20470;-81
2022/07/04 07:48:21;;;;;;;2.77;1.60;;;24.70;48.60;;;;;;5068600;28;20428;-80
2022/07/04 07:50:49;;;;;;;4.10;1.77;;;24.70;48.60;;;;;;5067343;28;20417;-80
2022/07/04 07:53:17;;;;;;;3.53;1.60;;;24.80;48.50;;;;;;5068351;28;20559;-80
2022/07/04 07:55:45;;;;;;;4.53;2.10;;;24.90;48.30;;;;;;5066253;28;20429;-81
2022/07/04 07:58:15;;;;;;;2.10;1.67;;;24.90;48.40;;;;;;5066221;28;20476;-80
2022/07/04 08:00:44;;;;;;;6.37;1.67;;;25.00;48.60;;;;;;5060058;28;20422;-80
2022/07/04 08:06:09;;;;;;;4.20;1.30;;;25.20;48.00;;;;;;5006169;28;20418;-80
2022/07/04 08:08:37;;;;;;;1.63;1.50;;;25.30;48.50;;;;;;5049364;28;20447;-80
2022/07/04 08:11:05;;;;;;;6.10;2.63;;;25.60;47.30;;;;;;5059780;28;20478;-80
2022/07/04 08:13:35;;;;;;;2.97;2.07;;;25.30;47.90;;;;;;5060945;28;20529;-80
2022/07/04 08:16:03;;;;;;;2.00;1.57;;;25.40;46.80;;;;;;5068461;28;20448;-81
2022/07/04 08:18:31;;;;;;;1.70;1.60;;;25.50;46.80;;;;;;5068994;28;20444;-81
2022/07/04 08:20:59;;;;;;;2.80;1.60;;;25.50;46.70;;;;;;5069593;28;20423;-81
2022/07/04 08:23:32;;;;;;;3.90;1.77;;;25.30;46.80;;;;;;5068897;28;20468;-80
2022/07/04 08:26:00;;;;;;;3.00;1.60;;;25.30;46.60;;;;;;5068672;28;20454;-80
2022/07/04 08:28:27;;;;;;;3.73;2.00;;;25.30;46.00;;;;;;5068538;28;20444;-80
2022/07/04 08:30:57;;;;;;;6.20;1.97;;;25.30;46.70;;;;;;5048013;28;20442;-80
2022/07/04 08:33:25;;;;;;;2.07;1.97;;;25.40;47.60;;;;;;5047984;28;20446;-80
2022/07/04 08:35:54;;;;;;;5.50;1.57;;;25.70;46.90;;;;;;5045235;28;20497;-80
2022/07/04 08:38:22;;;;;;;1.60;1.50;;;25.80;46.10;;;;;;5045254;28;20452;-80
2022/07/04 08:40:51;;;;;;;2.97;1.57;;;26.10;46.30;;;;;;5048784;28;20429;-80
2022/07/04 08:43:19;;;;;;;1.20;1.20;;;26.10;45.30;;;;;;5059131;28;20502;-81
2022/07/04 08:45:47;;;;;;;2.97;1.53;;;26.20;45.80;;;;;;5057508;28;20465;-81
2022/07/04 08:48:36;;;;;;;5.73;1.70;;;26.10;45.30;;;;;;5065975;28;20517;-81
2022/07/04 08:51:08;;;;;;;6.50;1.67;;;26.10;45.10;;;;;;5063773;28;20473;-82
2022/07/04 08:53:37;;;;;;;2.03;1.83;;;26.00;45.10;;;;;;5059727;28;20448;-83
2022/07/04 08:58:51;;;;;;;4.13;1.80;;;26.00;45.10;;;;;;5061867;28;20466;-81
2022/07/04 09:01:19;;;;;;;2.37;1.70;;;25.90;44.90;;;;;;5053285;28;20449;-81
2022/07/04 09:03:50;;;;;;;2.93;1.93;;;26.00;45.90;;;;;;5061905;28;20510;-80
2022/07/04 09:06:18;;;;;;;2.30;1.63;;;25.80;45.30;;;;;;5066580;28;20448;-80
2022/07/04 09:08:46;;;;;;;1.60;1.50;;;25.80;45.40;;;;;;5069001;28;20439;-80
2022/07/04 09:11:14;;;;;;;5.30;2.40;;;25.80;45.60;;;;;;5065916;28;20429;-81
2022/07/04 09:13:41;;;;;;;1.90;1.80;;;25.90;45.10;;;;;;5067054;28;20482;-81
2022/07/04 09:16:09;;;;;;;4.17;3.53;;;25.80;45.60;;;;;;5060271;28;20451;-80
2022/07/04 09:18:37;;;;;;;2.30;2.10;;;25.90;45.60;;;;;;5062513;28;20524;-81
2022/07/04 09:21:07;;;;;;;2.63;1.80;;;26.10;45.10;;;;;;5062435;28;20446;-81
2022/07/04 09:23:37;;;;;;;3.43;1.53;;;26.20;44.90;;;;;;5062392;28;20524;-81
2022/07/04 09:26:13;;;;;;;3.43;1.60;;;26.40;44.40;;;;;;5065452;28;20466;-81
2022/07/04 09:28:42;;;;;;;4.20;1.97;;;26.30;45.00;;;;;;5064523;28;20472;-81
2022/07/04 09:31:17;;;;;;;2.63;1.80;;;26.60;44.30;;;;;;5063221;28;20478;-81
2022/07/04 09:33:52;;;;;;;2.60;1.50;;;26.50;44.30;;;;;;5048128;28;20449;-81
2022/07/04 09:36:24;;;;;;;3.13;1.43;;;26.70;43.80;;;;;;5057606;28;20468;-80
2022/07/04 09:39:12;;;;;;;3.60;1.10;;;26.50;43.30;;;;;;5066846;28;20568;-80
2022/07/04 09:41:54;;;;;;;2.93;1.37;;;27.00;42.90;;;;;;5056943;28;20459;-78
2022/07/04 09:44:22;;;;;;;1.33;1.20;;;27.20;42.40;;;;;;5052420;28;20467;-80
2022/07/04 09:46:50;;;;;;;3.03;1.30;;;27.20;42.70;;;;;;5052164;28;20526;-79
2022/07/04 09:49:18;;;;;;;2.53;1.30;;;27.10;42.20;;;;;;5052701;28;20461;-84
2022/07/04 09:51:48;;;;;;;2.13;1.40;;;27.00;42.40;;;;;;5046458;28;20479;-82
2022/07/04 09:54:23;;;;;;;1.30;1.20;;;27.00;42.20;;;;;;5041590;28;20470;-82
2022/07/04 09:56:52;;;;;;;3.03;1.23;;;27.40;41.80;;;;;;5054408;28;20481;-80
2022/07/04 09:59:26;;;;;;;1.53;1.10;;;27.70;41.30;;;;;;5059110;28;20555;-80
2022/07/04 10:02:06;;;;;;;5.03;1.37;;;27.50;40.10;;;;;;5040686;28;20549;-78
2022/07/04 10:04:45;;;;;;;2.50;1.33;;;27.20;40.00;;;;;;5050427;28;20426;-78
2022/07/04 10:07:30;;;;;;;3.90;1.40;;;27.60;40.40;;;;;;5053604;28;20458;-78
2022/07/04 10:09:58;;;;;;;2.73;1.13;;;28.20;40.10;;;;;;5042086;28;20438;-78
2022/07/04 10:12:26;;;;;;;1.00;0.90;;;28.40;39.50;;;;;;5055369;28;20462;-78
2022/07/04 10:14:55;;;;;;;1.97;1.30;;;28.30;38.60;;;;;;5054855;28;20470;-78
2022/07/04 10:17:23;;;;;;;3.47;1.40;;;28.30;38.70;;;;;;5053957;28;20530;-78
2022/07/04 10:19:52;;;;;;;1.03;1.03;;;28.50;37.90;;;;;;5047417;28;20541;-78
2022/07/04 10:22:23;;;;;;;1.77;1.10;;;28.20;37.80;;;;;;5038098;28;20484;-78
2022/07/04 10:24:51;;;;;;;1.60;0.70;;;28.40;38.10;;;;;;5043492;28;20813;-78
2022/07/04 10:27:19;;;;;;;4.20;1.60;;;28.70;39.00;;;;;;5035070;28;20543;-78
2022/07/04 10:29:47;;;;;;;1.43;1.33;;;28.40;37.20;;;;;;5038246;28;20435;-78
2022/07/04 10:32:15;;;;;;;3.00;1.10;;;28.30;38.10;;;;;;5036025;28;20550;-78
2022/07/04 10:34:44;;;;;;;1.37;1.10;;;28.30;37.70;;;;;;5034184;28;20535;-78
2022/07/04 10:37:13;;;;;;;1.73;1.10;;;28.30;38.30;;;;;;5044945;28;20526;-78
2022/07/04 10:39:42;;;;;;;1.93;1.20;;;28.50;38.00;;;;;;5035560;28;20473;-78
2022/07/04 10:42:10;;;;;;;2.17;1.27;;;28.40;37.50;;;;;;5045200;28;20459;-78
2022/07/04 10:44:44;;;;;;;1.90;0.87;;;28.50;38.00;;;;;;5040993;28;20951;-78
2022/07/04 10:47:23;;;;;;;2.60;1.10;;;28.40;38.10;;;;;;5035054;28;20493;-77
2022/07/04 10:49:55;;;;;;;1.53;1.43;;;28.30;38.40;;;;;;5052350;28;20438;-78
2022/07/04 10:52:23;;;;;;;1.20;1.10;;;28.40;38.40;;;;;;5056674;28;20485;-77
2022/07/04 10:54:52;;;;;;;1.23;1.13;;;28.70;37.60;;;;;;5062466;28;20497;-78
2022/07/04 10:57:20;;;;;;;1.47;1.17;;;28.90;37.40;;;;;;5048525;28;20450;-77
2022/07/04 11:00:04;;;;;;;2.20;1.87;;;28.90;37.20;;;;;;5035182;28;20471;-77
2022/07/04 11:02:32;;;;;;;2.80;1.10;;;28.90;37.10;;;;;;5042240;28;20958;-77
2022/07/04 11:05:01;;;;;;;1.43;1.10;;;28.60;37.80;;;;;;5044249;28;20451;-77
2022/07/04 11:08:02;;;;;;;2.90;1.20;;;28.70;38.10;;;;;;5044571;28;20530;-77
2022/07/04 11:10:33;;;;;;;1.93;1.10;;;28.90;38.20;;;;;;5043572;28;20446;-78
2022/07/04 11:13:17;;;;;;;2.60;1.20;;;29.10;37.80;;;;;;5043624;28;20557;-78
2022/07/04 11:16:13;;;;;;;2.27;1.20;;;29.10;38.10;;;;;;5044178;28;20463;-77
2022/07/04 11:18:44;;;;;;;1.23;1.20;;;29.00;36.80;;;;;;5020054;28;20467;-77
2022/07/04 11:21:33;;;;;;;1.10;1.10;;;29.00;36.70;;;;;;5039306;28;20551;-77
2022/07/04 11:24:01;;;;;;;1.30;1.20;;;28.90;36.60;;;;;;5044434;28;20526;-78
2022/07/04 11:26:31;;;;;;;3.87;1.57;;;28.70;37.30;;;;;;5054563;28;20529;-79
2022/07/04 11:28:59;;;;;;;1.90;1.70;;;28.80;37.90;;;;;;5050749;28;20505;-79
2022/07/04 11:31:37;;;;;;;2.70;1.53;;;29.00;38.30;;;;;;5040319;28;20462;-77
2022/07/04 11:34:05;;;;;;;9.23;1.60;;;29.20;38.00;;;;;;5034534;28;20843;-78
2022/07/04 11:36:33;;;;;;;2.77;1.33;;;29.50;38.10;;;;;;5045973;28;20432;-78
2022/07/04 11:39:01;;;;;;;4.40;2.33;;;29.20;37.20;;;;;;5045558;28;20477;-78
2022/07/04 11:47:10;;;;;;;1.73;1.33;;;29.10;37.60;;;;;;5042751;28;20435;-78
2022/07/04 11:49:43;;;;;;;1.60;1.30;;;29.00;38.80;;;;;;5041610;28;20452;-78
2022/07/04 11:52:10;;;;;;;1.83;1.50;;;29.20;38.60;;;;;;5041179;28;20463;-77
2022/07/04 11:54:40;;;;;;;1.57;1.47;;;29.20;38.70;;;;;;5045292;28;20427;-78
2022/07/04 11:57:23;;;;;;;2.30;1.00;;;29.10;39.90;;;;;;5049279;28;20438;-79
2022/07/04 12:00:01;;;;;;;1.47;1.13;;;29.40;39.40;;;;;;5046597;28;20462;-81
2022/07/04 12:02:29;;;;;;;3.70;1.40;;;29.60;38.90;;;;;;5050595;28;20481;-80
2022/07/04 12:04:58;;;;;;;4.57;1.07;;;30.10;39.30;;;;;;5056101;28;20480;-80
2022/07/04 12:07:26;;;;;;;0.97;0.90;;;30.50;38.30;;;;;;5050759;28;20446;-79
2022/07/04 12:09:55;;;;;;;2.73;1.30;;;30.60;38.20;;;;;;5058017;28;20480;-80
2022/07/04 12:12:24;;;;;;;1.03;0.90;;;31.00;37.90;;;;;;5056247;28;20518;-80
2022/07/04 12:15:03;;;;;;;1.37;0.90;;;31.30;36.80;;;;;;5056680;28;20466;-79
2022/07/04 12:17:32;;;;;;;3.17;1.33;;;31.20;36.80;;;;;;5056714;28;20506;-80
2022/07/04 12:20:01;;;;;;;2.40;0.90;;;31.00;36.40;;;;;;5056531;28;20500;-79
2022/07/04 12:22:31;;;;;;;4.70;1.40;;;31.00;36.50;;;;;;5045035;28;20449;-80
2022/07/04 12:24:59;;;;;;;3.90;1.33;;;30.60;36.70;;;;;;5037852;28;20511;-80
2022/07/04 12:27:29;;;;;;;3.57;1.17;;;30.50;37.20;;;;;;5045176;28;20442;-80
2022/07/04 12:29:58;;;;;;;1.43;1.00;;;30.70;35.70;;;;;;5057467;28;20498;-80
2022/07/04 12:32:47;;;;;;;2.47;0.97;;;30.70;35.70;;;;;;5065196;28;20500;-80
2022/07/04 12:35:41;;;;;;;6.73;1.20;;;30.90;35.20;;;;;;5079700;28;20432;-80
2022/07/04 12:38:10;;;;;;;1.87;1.00;;;31.10;34.40;;;;;;5060332;28;20497;-80
2022/07/04 12:40:49;;;;;;;2.97;1.10;;;31.10;34.40;;;;;;5060883;28;20561;-80
2022/07/04 12:43:18;;;;;;;1.17;1.17;;;31.20;35.00;;;;;;5058522;28;20516;-80
2022/07/04 12:45:47;;;;;;;2.07;1.10;;;31.50;34.50;;;;;;5061158;28;20469;-80
2022/07/04 12:48:19;;;;;;;0.90;0.90;;;31.60;34.00;;;;;;5061352;28;20434;-83
2022/07/04 12:50:47;;;;;;;3.73;1.47;;;31.80;33.80;;;;;;5059999;28;20472;-80
2022/07/04 12:53:16;;;;;;;2.20;1.00;;;31.80;32.80;;;;;;5060788;28;20545;-81
2022/07/04 12:55:44;;;;;;;1.43;1.00;;;31.30;32.80;;;;;;5061573;28;20458;-81
2022/07/04 12:58:12;;;;;;;3.37;1.27;;;31.10;33.10;;;;;;5061258;28;20480;-81
2022/07/04 13:00:42;;;;;;;1.30;1.00;;;31.00;33.50;;;;;;5059755;28;20477;-81
2022/07/04 13:03:09;;;;;;;4.00;1.50;;;31.20;32.90;;;;;;5060618;28;20472;-81
2022/07/04 13:05:39;;;;;;;3.50;1.10;;;30.90;33.90;;;;;;5050093;28;20454;-81
2022/07/04 13:08:07;;;;;;;2.30;1.40;;;31.00;34.00;;;;;;5041312;28;20530;-81
2022/07/04 13:10:35;;;;;;;1.17;1.07;;;30.90;34.00;;;;;;5052416;28;20457;-82
2022/07/04 13:13:03;;;;;;;1.00;1.00;;;30.80;33.90;;;;;;5061231;28;20461;-82
2022/07/04 13:15:31;;;;;;;3.73;1.00;;;31.00;34.00;;;;;;5060444;28;20474;-81
2022/07/04 13:18:01;;;;;;;1.80;1.00;;;31.20;34.60;;;;;;5063093;28;20455;-81
2022/07/04 13:20:29;;;;;;;1.70;1.10;;;31.20;34.60;;;;;;5049431;28;20475;-81